sensor_id;sensor_type;location;lat;lon;timestamp;pressure;altitude;pressure_sealevel;temperature;humidity
43701;BME280;58809;47.984;7.964;2023-03-03T00:00:07;97372.78;;;-0.86;98.23
43701;BME280;58809;47.984;7.964;2023-03-03T00:03:18;97373.41;;;-0.83;98.20
43701;BME280;58809;47.984;7.964;2023-03-03T00:06:20;97362.63;;;-0.89;97.86
43701;BME280;58809;47.984;7.964;2023-03-03T00:09:22;97379.47;;;-0.95;97.32
43701;BME280;58809;47.984;7.964;2023-03-03T00:12:27;97375.91;;;-1.07;97.68
43701;BME280;58809;47.984;7.964;2023-03-03T00:15:29;97380.41;;;-1.09;99.01
43701;BME280;58809;47.984;7.964;2023-03-03T00:18:36;97384.66;;;-1.08;98.85
43701;BME280;58809;47.984;7.964;2023-03-03T00:21:44;97385.59;;;-1.09;98.33
43701;BME280;58809;47.984;7.964;2023-03-03T00:24:46;97389.84;;;-1.21;97.88
43701;BME280;58809;47.984;7.964;2023-03-03T00:27:47;97393.69;;;-1.26;98.96
43701;BME280;58809;47.984;7.964;2023-03-03T00:30:50;97394.44;;;-1.24;98.91
43701;BME280;58809;47.984;7.964;2023-03-03T00:33:53;97389.84;;;-1.21;98.81
43701;BME280;58809;47.984;7.964;2023-03-03T00:36:57;97382.69;;;-1.17;98.90
43701;BME280;58809;47.984;7.964;2023-03-03T00:43:27;97393.56;;;-1.12;98.35
43701;BME280;58809;47.984;7.964;2023-03-03T00:46:34;97386.53;;;-1.10;98.35
43701;BME280;58809;47.984;7.964;2023-03-03T00:49:38;97393.56;;;-1.12;97.69
43701;BME280;58809;47.984;7.964;2023-03-03T00:52:44;97388.81;;;-1.18;97.83
43701;BME280;58809;47.984;7.964;2023-03-03T00:55:48;97382.38;;;-1.25;97.77
43701;BME280;58809;47.984;7.964;2023-03-03T00:58:50;97395.44;;;-1.27;98.22
43701;BME280;58809;47.984;7.964;2023-03-03T01:01:54;97404.47;;;-1.20;98.93
43701;BME280;58809;47.984;7.964;2023-03-03T01:04:56;97405.94;;;-1.16;98.18
43701;BME280;58809;47.984;7.964;2023-03-03T01:07:58;97395.34;;;-1.12;98.57
43701;BME280;58809;47.984;7.964;2023-03-03T01:11:05;97393.28;;;-1.07;98.46
43701;BME280;58809;47.984;7.964;2023-03-03T01:14:09;97401.91;;;-0.94;98.20
43701;BME280;58809;47.984;7.964;2023-03-03T01:17:10;97396.59;;;-0.92;97.24
43701;BME280;58809;47.984;7.964;2023-03-03T01:20:13;97396.41;;;-0.89;97.81
43701;BME280;58809;47.984;7.964;2023-03-03T01:23:15;97388.28;;;-0.85;97.77
43701;BME280;58809;47.984;7.964;2023-03-03T01:26:17;97389.84;;;-0.82;97.86
43701;BME280;58809;47.984;7.964;2023-03-03T01:29:19;97394.91;;;-0.81;98.16
43701;BME280;58809;47.984;7.964;2023-03-03T01:32:21;97388.50;;;-0.75;97.97
43701;BME280;58809;47.984;7.964;2023-03-03T01:35:23;97388.06;;;-0.69;97.38
43701;BME280;58809;47.984;7.964;2023-03-03T01:38:24;97398.03;;;-0.63;97.93
43701;BME280;58809;47.984;7.964;2023-03-03T01:41:27;97396.56;;;-0.67;97.38
43701;BME280;58809;47.984;7.964;2023-03-03T01:44:30;97389.50;;;-0.65;97.82
43701;BME280;58809;47.984;7.964;2023-03-03T01:47:32;97384.53;;;-0.68;97.72
43701;BME280;58809;47.984;7.964;2023-03-03T01:50:44;97389.22;;;-0.73;98.01
43701;BME280;58809;47.984;7.964;2023-03-03T01:53:50;97381.94;;;-0.81;98.47
43701;BME280;58809;47.984;7.964;2023-03-03T01:56:56;97379.75;;;-0.74;98.76
43701;BME280;58809;47.984;7.964;2023-03-03T01:59:59;97384.94;;;-0.74;98.91
43701;BME280;58809;47.984;7.964;2023-03-03T02:03:12;97379.22;;;-0.79;98.70
43701;BME280;58809;47.984;7.964;2023-03-03T02:06:16;97380.47;;;-0.85;99.22
43701;BME280;58809;47.984;7.964;2023-03-03T02:09:31;97372.59;;;-0.83;100.00
43701;BME280;58809;47.984;7.964;2023-03-03T02:12:49;97373.53;;;-0.84;99.98
43701;BME280;58809;47.984;7.964;2023-03-03T02:15:51;97374.47;;;-0.85;100.00
43701;BME280;58809;47.984;7.964;2023-03-03T02:18:53;97370.81;;;-0.83;100.00
43701;BME280;58809;47.984;7.964;2023-03-03T02:21:55;97369.38;;;-0.87;100.00
43701;BME280;58809;47.984;7.964;2023-03-03T02:24:59;97359.06;;;-0.88;100.00
43701;BME280;58809;47.984;7.964;2023-03-03T02:28:03;97362.41;;;-0.86;100.00
43701;BME280;58809;47.984;7.964;2023-03-03T02:31:10;97358.66;;;-0.82;100.00
43701;BME280;58809;47.984;7.964;2023-03-03T02:34:14;97354.94;;;-0.91;100.00
43701;BME280;58809;47.984;7.964;2023-03-03T02:37:17;97359.41;;;-0.93;100.00
43701;BME280;58809;47.984;7.964;2023-03-03T02:40:20;97354.84;;;-0.89;100.00
43701;BME280;58809;47.984;7.964;2023-03-03T02:43:29;97357.72;;;-0.94;100.00
43701;BME280;58809;47.984;7.964;2023-03-03T02:46:37;97352.63;;;-0.95;100.00
43701;BME280;58809;47.984;7.964;2023-03-03T02:49:40;97347.34;;;-0.94;100.00
43701;BME280;58809;47.984;7.964;2023-03-03T02:52:43;97349.13;;;-0.94;100.00
43701;BME280;58809;47.984;7.964;2023-03-03T02:55:44;97352.44;;;-0.92;100.00
43701;BME280;58809;47.984;7.964;2023-03-03T02:58:46;97351.91;;;-0.98;100.00
43701;BME280;58809;47.984;7.964;2023-03-03T03:01:48;97350.91;;;-1.08;100.00
43701;BME280;58809;47.984;7.964;2023-03-03T03:04:52;97348.94;;;-1.17;100.00
43701;BME280;58809;47.984;7.964;2023-03-03T03:07:56;97338.41;;;-1.28;100.00
43701;BME280;58809;47.984;7.964;2023-03-03T03:10:58;97349.34;;;-1.23;100.00
43701;BME280;58809;47.984;7.964;2023-03-03T03:14:02;97347.16;;;-1.29;100.00
43701;BME280;58809;47.984;7.964;2023-03-03T03:17:04;97346.44;;;-1.31;100.00
43701;BME280;58809;47.984;7.964;2023-03-03T03:20:06;97347.88;;;-1.27;100.00
43701;BME280;58809;47.984;7.964;2023-03-03T03:23:08;97347.47;;;-1.34;100.00
43701;BME280;58809;47.984;7.964;2023-03-03T03:26:10;97351.53;;;-1.43;100.00
43701;BME280;58809;47.984;7.964;2023-03-03T03:29:12;97355.13;;;-1.45;100.00
43701;BME280;58809;47.984;7.964;2023-03-03T03:32:14;97354.31;;;-1.46;100.00
43701;BME280;58809;47.984;7.964;2023-03-03T03:35:15;97353.97;;;-1.54;100.00
43701;BME280;58809;47.984;7.964;2023-03-03T03:42:59;97364.97;;;-1.63;100.00
43701;BME280;58809;47.984;7.964;2023-03-03T03:46:00;97364.88;;;-1.62;100.00
43701;BME280;58809;47.984;7.964;2023-03-03T03:49:03;97361.34;;;-1.61;100.00
43701;BME280;58809;47.984;7.964;2023-03-03T03:52:04;97355.03;;;-1.57;100.00
43701;BME280;58809;47.984;7.964;2023-03-03T03:55:08;97374.00;;;-1.56;100.00
43701;BME280;58809;47.984;7.964;2023-03-03T03:58:13;97369.34;;;-1.51;100.00
43701;BME280;58809;47.984;7.964;2023-03-03T04:01:15;97372.38;;;-1.57;100.00
43701;BME280;58809;47.984;7.964;2023-03-03T04:04:21;97370.59;;;-1.57;100.00
43701;BME280;58809;47.984;7.964;2023-03-03T04:07:23;97368.53;;;-1.51;100.00
43701;BME280;58809;47.984;7.964;2023-03-03T04:10:25;97382.13;;;-1.48;100.00
43701;BME280;58809;47.984;7.964;2023-03-03T04:13:27;97387.53;;;-1.51;100.00
43701;BME280;58809;47.984;7.964;2023-03-03T04:16:33;97383.28;;;-1.52;100.00
43701;BME280;58809;47.984;7.964;2023-03-03T04:19:35;97378.59;;;-1.47;100.00
43701;BME280;58809;47.984;7.964;2023-03-03T04:22:38;97380.56;;;-1.38;100.00
43701;BME280;58809;47.984;7.964;2023-03-03T04:25:40;97384.03;;;-1.24;100.00
43701;BME280;58809;47.984;7.964;2023-03-03T04:28:47;97387.03;;;-1.18;100.00
43701;BME280;58809;47.984;7.964;2023-03-03T04:31:49;97392.66;;;-1.11;100.00
43701;BME280;58809;47.984;7.964;2023-03-03T04:34:52;97388.19;;;-1.09;100.00
43701;BME280;58809;47.984;7.964;2023-03-03T04:38:08;97391.31;;;-1.04;100.00
43701;BME280;58809;47.984;7.964;2023-03-03T04:41:10;97391.72;;;-1.10;100.00
43701;BME280;58809;47.984;7.964;2023-03-03T04:44:13;97385.28;;;-1.04;100.00
43701;BME280;58809;47.984;7.964;2023-03-03T04:47:14;97392.56;;;-1.09;100.00
43701;BME280;58809;47.984;7.964;2023-03-03T04:50:16;97385.59;;;-1.09;100.00
43701;BME280;58809;47.984;7.964;2023-03-03T04:53:18;97390.34;;;-1.03;100.00
43701;BME280;58809;47.984;7.964;2023-03-03T04:56:19;97391.50;;;-0.94;100.00
43701;BME280;58809;47.984;7.964;2023-03-03T04:59:22;97394.94;;;-0.93;100.00
43701;BME280;58809;47.984;7.964;2023-03-03T05:02:23;97390.06;;;-0.98;100.00
43701;BME280;58809;47.984;7.964;2023-03-03T05:05:25;97385.91;;;-1.01;100.00
43701;BME280;58809;47.984;7.964;2023-03-03T05:08:27;97393.81;;;-0.89;100.00
43701;BME280;58809;47.984;7.964;2023-03-03T05:11:29;97392.13;;;-0.78;100.00
43701;BME280;58809;47.984;7.964;2023-03-03T05:14:30;97394.19;;;-0.70;100.00
43701;BME280;58809;47.984;7.964;2023-03-03T05:17:32;97394.50;;;-0.62;100.00
43701;BME280;58809;47.984;7.964;2023-03-03T05:20:33;97390.94;;;-0.61;100.00
43701;BME280;58809;47.984;7.964;2023-03-03T05:23:35;97391.56;;;-0.57;100.00
43701;BME280;58809;47.984;7.964;2023-03-03T05:26:37;97390.13;;;-0.61;100.00
43701;BME280;58809;47.984;7.964;2023-03-03T05:29:38;97391.47;;;-0.55;100.00
43701;BME280;58809;47.984;7.964;2023-03-03T05:32:40;97394.06;;;-0.55;100.00
43701;BME280;58809;47.984;7.964;2023-03-03T05:35:42;97378.97;;;-0.50;100.00
43701;BME280;58809;47.984;7.964;2023-03-03T05:38:43;97392.06;;;-0.52;100.00
43701;BME280;58809;47.984;7.964;2023-03-03T05:41:45;97398.63;;;-0.46;100.00
43701;BME280;58809;47.984;7.964;2023-03-03T05:44:46;97400.91;;;-0.42;100.00
43701;BME280;58809;47.984;7.964;2023-03-03T05:47:48;97404.84;;;-0.36;100.00
43701;BME280;58809;47.984;7.964;2023-03-03T05:50:49;97404.41;;;-0.30;100.00
43701;BME280;58809;47.984;7.964;2023-03-03T05:53:51;97407.06;;;-0.18;100.00
43701;BME280;58809;47.984;7.964;2023-03-03T05:56:56;97406.75;;;-0.14;100.00
43701;BME280;58809;47.984;7.964;2023-03-03T05:59:57;97415.28;;;-0.12;100.00
43701;BME280;58809;47.984;7.964;2023-03-03T06:02:59;97412.78;;;-0.13;100.00
43701;BME280;58809;47.984;7.964;2023-03-03T06:06:01;97406.41;;;-0.09;100.00
43701;BME280;58809;47.984;7.964;2023-03-03T06:09:02;97410.03;;;0.01;100.00
43701;BME280;58809;47.984;7.964;2023-03-03T06:12:04;97416.25;;;0.11;100.00
43701;BME280;58809;47.984;7.964;2023-03-03T06:15:07;97424.53;;;0.16;100.00
43701;BME280;58809;47.984;7.964;2023-03-03T06:18:08;97418.75;;;0.13;100.00
43701;BME280;58809;47.984;7.964;2023-03-03T06:21:10;97415.69;;;0.19;100.00
43701;BME280;58809;47.984;7.964;2023-03-03T06:24:12;97417.50;;;0.30;100.00
43701;BME280;58809;47.984;7.964;2023-03-03T06:27:13;97428.19;;;0.38;100.00
43701;BME280;58809;47.984;7.964;2023-03-03T06:30:15;97422.41;;;0.46;100.00
43701;BME280;58809;47.984;7.964;2023-03-03T06:33:16;97426.00;;;0.56;100.00
43701;BME280;58809;47.984;7.964;2023-03-03T06:36:19;97427.53;;;0.58;100.00
43701;BME280;58809;47.984;7.964;2023-03-03T06:39:20;97428.28;;;0.61;100.00
43701;BME280;58809;47.984;7.964;2023-03-03T06:42:22;97435.63;;;0.67;100.00
43701;BME280;58809;47.984;7.964;2023-03-03T06:45:25;97438.38;;;0.76;100.00
43701;BME280;58809;47.984;7.964;2023-03-03T06:48:27;97443.16;;;0.83;100.00
43701;BME280;58809;47.984;7.964;2023-03-03T06:51:33;97440.41;;;0.84;99.87
43701;BME280;58809;47.984;7.964;2023-03-03T06:54:35;97443.25;;;0.81;100.00
43701;BME280;58809;47.984;7.964;2023-03-03T06:57:37;97440.19;;;0.87;100.00
43701;BME280;58809;47.984;7.964;2023-03-03T07:00:40;97448.13;;;0.97;100.00
43701;BME280;58809;47.984;7.964;2023-03-03T07:03:44;97445.44;;;0.99;99.84
43701;BME280;58809;47.984;7.964;2023-03-03T07:06:46;97451.50;;;1.10;99.29
43701;BME280;58809;47.984;7.964;2023-03-03T07:09:50;97455.44;;;1.16;99.00
43701;BME280;58809;47.984;7.964;2023-03-03T07:12:51;97464.69;;;1.31;99.36
43701;BME280;58809;47.984;7.964;2023-03-03T07:15:58;97464.69;;;1.43;98.51
43701;BME280;58809;47.984;7.964;2023-03-03T07:19:00;97460.44;;;1.53;97.78
43701;BME280;58809;47.984;7.964;2023-03-03T07:25:21;97473.25;;;1.67;97.27
43701;BME280;58809;47.984;7.964;2023-03-03T07:28:28;97465.53;;;1.77;96.43
43701;BME280;58809;47.984;7.964;2023-03-03T07:31:35;97469.44;;;1.83;95.46
43701;BME280;58809;47.984;7.964;2023-03-03T07:34:43;97475.84;;;1.90;95.17
43701;BME280;58809;47.984;7.964;2023-03-03T07:37:45;97474.06;;;2.02;94.70
43701;BME280;58809;47.984;7.964;2023-03-03T07:40:49;97474.16;;;2.11;93.86
43701;BME280;58809;47.984;7.964;2023-03-03T07:47:14;97485.53;;;2.22;93.48
43701;BME280;58809;47.984;7.964;2023-03-03T07:50:19;97487.66;;;2.28;93.00
43701;BME280;58809;47.984;7.964;2023-03-03T07:53:29;97488.84;;;2.24;92.45
43701;BME280;58809;47.984;7.964;2023-03-03T07:56:35;97495.47;;;2.39;92.75
43701;BME280;58809;47.984;7.964;2023-03-03T07:59:40;97505.88;;;2.50;91.83
43701;BME280;58809;47.984;7.964;2023-03-03T08:02:53;97501.34;;;2.53;91.20
43701;BME280;58809;47.984;7.964;2023-03-03T08:05:56;97511.22;;;2.60;90.83
43701;BME280;58809;47.984;7.964;2023-03-03T08:09:21;97509.75;;;2.67;89.96
43701;BME280;58809;47.984;7.964;2023-03-03T08:12:40;97502.69;;;2.79;89.56
43701;BME280;58809;47.984;7.964;2023-03-03T08:15:44;97491.72;;;2.85;88.81
43701;BME280;58809;47.984;7.964;2023-03-03T08:18:47;97498.34;;;3.01;88.87
43701;BME280;58809;47.984;7.964;2023-03-03T08:21:50;97506.47;;;3.07;87.61
43701;BME280;58809;47.984;7.964;2023-03-03T08:24:52;97511.41;;;3.22;87.21
43701;BME280;58809;47.984;7.964;2023-03-03T08:27:53;97503.50;;;3.33;86.44
43701;BME280;58809;47.984;7.964;2023-03-03T08:30:55;97505.63;;;3.39;86.27
43701;BME280;58809;47.984;7.964;2023-03-03T08:34:16;97508.53;;;3.46;85.47
43701;BME280;58809;47.984;7.964;2023-03-03T08:37:18;97509.41;;;3.56;84.95
43701;BME280;58809;47.984;7.964;2023-03-03T08:40:19;97508.97;;;3.72;84.34
43701;BME280;58809;47.984;7.964;2023-03-03T08:43:21;97505.72;;;3.90;83.92
43701;BME280;58809;47.984;7.964;2023-03-03T08:46:23;97500.81;;;4.06;82.78
43701;BME280;58809;47.984;7.964;2023-03-03T08:49:24;97501.16;;;4.22;82.35
43701;BME280;58809;47.984;7.964;2023-03-03T08:52:26;97507.53;;;4.39;82.02
43701;BME280;58809;47.984;7.964;2023-03-03T08:55:27;97505.63;;;4.51;81.32
43701;BME280;58809;47.984;7.964;2023-03-03T08:58:29;97507.00;;;4.65;80.45
43701;BME280;58809;47.984;7.964;2023-03-03T09:01:36;97502.75;;;4.74;79.83
43701;BME280;58809;47.984;7.964;2023-03-03T09:04:38;97512.72;;;4.80;79.24
43701;BME280;58809;47.984;7.964;2023-03-03T09:07:40;97506.22;;;4.84;78.13
43701;BME280;58809;47.984;7.964;2023-03-03T09:10:41;97504.16;;;4.88;77.35
43701;BME280;58809;47.984;7.964;2023-03-03T09:13:43;97504.69;;;5.01;77.51
43701;BME280;58809;47.984;7.964;2023-03-03T09:16:49;97501.50;;;5.07;75.67
43701;BME280;58809;47.984;7.964;2023-03-03T09:19:52;97503.28;;;5.16;75.92
43701;BME280;58809;47.984;7.964;2023-03-03T09:22:55;97511.69;;;5.39;75.13
43701;BME280;58809;47.984;7.964;2023-03-03T09:29:36;97509.97;;;5.77;74.23
43701;BME280;58809;47.984;7.964;2023-03-03T09:32:38;97505.47;;;5.88;73.63
43701;BME280;58809;47.984;7.964;2023-03-03T09:35:39;97502.88;;;5.97;73.36
43701;BME280;58809;47.984;7.964;2023-03-03T09:38:44;97506.44;;;6.06;72.87
43701;BME280;58809;47.984;7.964;2023-03-03T09:48:27;97517.91;;;6.05;71.66
43701;BME280;58809;47.984;7.964;2023-03-03T09:51:37;97511.28;;;5.91;71.76
43701;BME280;58809;47.984;7.964;2023-03-03T09:54:51;97509.06;;;5.96;71.30
43701;BME280;58809;47.984;7.964;2023-03-03T10:08:24;97507.91;;;6.64;68.78
43701;BME280;58809;47.984;7.964;2023-03-03T10:14:58;97514.72;;;6.57;69.30
43701;BME280;58809;47.984;7.964;2023-03-03T10:21:37;97507.91;;;6.64;69.04
43701;BME280;58809;47.984;7.964;2023-03-03T10:28:35;97507.53;;;6.95;68.44
43701;BME280;58809;47.984;7.964;2023-03-03T10:52:29;97513.31;;;7.61;65.94
43701;BME280;58809;47.984;7.964;2023-03-03T10:55:41;97510.38;;;7.64;65.34
43701;BME280;58809;47.984;7.964;2023-03-03T10:59:06;97504.78;;;7.67;65.05
43701;BME280;58809;47.984;7.964;2023-03-03T11:05:45;97507.78;;;7.46;64.82
43701;BME280;58809;47.984;7.964;2023-03-03T11:09:01;97504.19;;;7.29;66.19
43701;BME280;58809;47.984;7.964;2023-03-03T11:12:14;97496.41;;;7.45;65.22
43701;BME280;58809;47.984;7.964;2023-03-03T11:15:38;97499.66;;;7.39;65.50
43701;BME280;58809;47.984;7.964;2023-03-03T11:35:40;97491.03;;;7.73;63.79
43701;BME280;58809;47.984;7.964;2023-03-03T11:42:17;97488.72;;;7.78;63.89
43701;BME280;58809;47.984;7.964;2023-03-03T11:45:30;97478.66;;;8.08;63.25
43701;BME280;58809;47.984;7.964;2023-03-03T11:48:40;97490.38;;;8.14;62.82
43701;BME280;58809;47.984;7.964;2023-03-03T11:52:02;97483.00;;;8.17;62.47
43701;BME280;58809;47.984;7.964;2023-03-03T11:55:16;97485.41;;;8.02;62.88
43701;BME280;58809;47.984;7.964;2023-03-03T11:58:27;97478.66;;;8.08;62.67
43701;BME280;58809;47.984;7.964;2023-03-03T12:01:35;97476.84;;;8.08;62.72
43701;BME280;58809;47.984;7.964;2023-03-03T12:04:48;97476.69;;;8.10;62.08
43701;BME280;58809;47.984;7.964;2023-03-03T12:08:12;97475.69;;;8.11;62.50
43701;BME280;58809;47.984;7.964;2023-03-03T12:18:22;97464.25;;;8.28;62.34
43701;BME280;58809;47.984;7.964;2023-03-03T12:40:35;97456.31;;;9.29;60.12
43701;BME280;58809;47.984;7.964;2023-03-03T12:47:07;97449.88;;;9.15;59.92
43701;BME280;58809;47.984;7.964;2023-03-03T12:50:19;97443.94;;;8.96;60.65
43701;BME280;58809;47.984;7.964;2023-03-03T12:53:29;97439.31;;;8.57;61.40
43701;BME280;58809;47.984;7.964;2023-03-03T12:56:53;97438.81;;;8.70;61.24
43701;BME280;58809;47.984;7.964;2023-03-03T13:00:17;97441.78;;;9.08;61.50
43701;BME280;58809;47.984;7.964;2023-03-03T13:13:33;97434.38;;;9.20;61.59
43701;BME280;58809;47.984;7.964;2023-03-03T13:17:08;97436.34;;;9.34;60.47
43701;BME280;58809;47.984;7.964;2023-03-03T13:20:24;97437.50;;;9.15;60.29
43701;BME280;58809;47.984;7.964;2023-03-03T13:23:50;97432.44;;;9.70;59.34
43701;BME280;58809;47.984;7.964;2023-03-03T13:26:56;97439.88;;;9.66;59.12
43701;BME280;58809;47.984;7.964;2023-03-03T13:30:11;97433.78;;;9.57;59.59
43701;BME280;58809;47.984;7.964;2023-03-03T13:33:21;97433.16;;;9.55;59.65
43701;BME280;58809;47.984;7.964;2023-03-03T13:36:56;97435.50;;;9.42;59.69
43701;BME280;58809;47.984;7.964;2023-03-03T13:40:05;97437.28;;;9.50;60.49
43701;BME280;58809;47.984;7.964;2023-03-03T13:43:18;97435.50;;;9.42;60.87
43701;BME280;58809;47.984;7.964;2023-03-03T13:46:29;97432.66;;;9.52;60.70
43701;BME280;58809;47.984;7.964;2023-03-03T13:56:45;97428.41;;;9.26;61.96
43701;BME280;58809;47.984;7.964;2023-03-03T14:06:27;97425.09;;;9.32;61.24
43701;BME280;58809;47.984;7.964;2023-03-03T14:09:53;97419.66;;;9.17;61.87
43701;BME280;58809;47.984;7.964;2023-03-03T14:16:11;97416.00;;;9.51;61.47
43701;BME280;58809;47.984;7.964;2023-03-03T14:19:43;97417.53;;;10.25;58.92
43701;BME280;58809;47.984;7.964;2023-03-03T14:22:51;97420.19;;;10.56;58.57
43701;BME280;58809;47.984;7.964;2023-03-03T14:29:19;97419.28;;;9.53;60.76
43701;BME280;58809;47.984;7.964;2023-03-03T14:32:24;97420.31;;;9.28;60.72
43701;BME280;58809;47.984;7.964;2023-03-03T14:38:57;97421.13;;;9.28;61.34
43701;BME280;58809;47.984;7.964;2023-03-03T14:42:00;97413.19;;;9.44;60.62
43701;BME280;58809;47.984;7.964;2023-03-03T14:45:18;97420.06;;;9.70;60.51
43701;BME280;58809;47.984;7.964;2023-03-03T14:48:30;97424.19;;;9.73;60.48
43701;BME280;58809;47.984;7.964;2023-03-03T14:51:41;97423.22;;;9.57;59.41
43701;BME280;58809;47.984;7.964;2023-03-03T14:55:26;97417.41;;;9.70;60.23
43701;BME280;58809;47.984;7.964;2023-03-03T14:58:39;97412.00;;;10.03;59.36
43701;BME280;58809;47.984;7.964;2023-03-03T15:01:41;97411.03;;;10.04;59.01
43701;BME280;58809;47.984;7.964;2023-03-03T15:04:44;97418.25;;;10.10;59.01
43701;BME280;58809;47.984;7.964;2023-03-03T15:08:09;97418.56;;;10.15;59.25
43701;BME280;58809;47.984;7.964;2023-03-03T15:11:19;97412.00;;;10.03;59.42
43701;BME280;58809;47.984;7.964;2023-03-03T15:14:29;97414.94;;;9.69;60.19
43701;BME280;58809;47.984;7.964;2023-03-03T15:21:07;97414.53;;;9.32;60.60
43701;BME280;58809;47.984;7.964;2023-03-03T15:24:30;97413.25;;;9.20;61.53
43701;BME280;58809;47.984;7.964;2023-03-03T15:27:41;97408.63;;;8.81;62.22
43701;BME280;58809;47.984;7.964;2023-03-03T15:30:50;97409.47;;;8.90;62.70
43701;BME280;58809;47.984;7.964;2023-03-03T15:40:39;97418.44;;;9.69;60.20
43701;BME280;58809;47.984;7.964;2023-03-03T15:44:01;97422.97;;;9.19;60.75
43701;BME280;58809;47.984;7.964;2023-03-03T16:01:15;97418.41;;;8.21;64.20
43701;BME280;58809;47.984;7.964;2023-03-03T16:04:24;97419.81;;;7.99;64.30
43701;BME280;58809;47.984;7.964;2023-03-03T16:10:51;97416.56;;;7.71;65.44
43701;BME280;58809;47.984;7.964;2023-03-03T16:23:59;97430.69;;;7.09;66.96
43701;BME280;58809;47.984;7.964;2023-03-03T16:27:32;97434.78;;;7.04;67.58
43701;BME280;58809;47.984;7.964;2023-03-03T16:30:59;97443.63;;;7.03;67.83
43701;BME280;58809;47.984;7.964;2023-03-03T16:34:14;97442.06;;;6.92;68.13
43701;BME280;58809;47.984;7.964;2023-03-03T16:37:30;97453.19;;;6.86;68.61
43701;BME280;58809;47.984;7.964;2023-03-03T16:40:44;97454.78;;;6.79;68.92
43701;BME280;58809;47.984;7.964;2023-03-03T16:47:37;97459.06;;;6.80;69.46
43701;BME280;58809;47.984;7.964;2023-03-03T16:54:10;97470.41;;;6.80;69.96
43701;BME280;58809;47.984;7.964;2023-03-03T16:57:53;97475.75;;;6.70;70.92
43701;BME280;58809;47.984;7.964;2023-03-03T17:08:19;97495.84;;;6.44;72.18
43701;BME280;58809;47.984;7.964;2023-03-03T17:11:37;97499.91;;;6.38;72.72
43701;BME280;58809;47.984;7.964;2023-03-03T17:18:55;97509.56;;;6.10;73.83
43701;BME280;58809;47.984;7.964;2023-03-03T17:22:09;97505.50;;;5.97;74.35
43701;BME280;58809;47.984;7.964;2023-03-03T17:28:31;97513.53;;;5.86;75.51
43701;BME280;58809;47.984;7.964;2023-03-03T17:38:21;97523.97;;;5.49;77.46
43701;BME280;58809;47.984;7.964;2023-03-03T17:44:49;97529.13;;;5.11;79.02
43701;BME280;58809;47.984;7.964;2023-03-03T17:51:21;97537.94;;;4.91;80.45
43701;BME280;58809;47.984;7.964;2023-03-03T17:54:55;97539.19;;;4.87;80.56
43701;BME280;58809;47.984;7.964;2023-03-03T17:58:17;97538.19;;;4.68;81.24
43701;BME280;58809;47.984;7.964;2023-03-03T18:01:44;97545.50;;;4.55;81.81
43701;BME280;58809;47.984;7.964;2023-03-03T18:05:41;97552.78;;;4.41;82.34
43701;BME280;58809;47.984;7.964;2023-03-03T18:09:09;97548.84;;;4.26;83.36
43701;BME280;58809;47.984;7.964;2023-03-03T18:12:31;97558.34;;;4.17;83.66
43701;BME280;58809;47.984;7.964;2023-03-03T18:15:58;97561.88;;;4.07;83.96
43701;BME280;58809;47.984;7.964;2023-03-03T18:22:56;97565.84;;;4.01;85.06
43701;BME280;58809;47.984;7.964;2023-03-03T18:26:33;97558.97;;;4.00;84.77
43701;BME280;58809;47.984;7.964;2023-03-03T18:29:36;97565.81;;;3.91;84.85
43701;BME280;58809;47.984;7.964;2023-03-03T18:33:01;97572.84;;;3.91;85.68
43701;BME280;58809;47.984;7.964;2023-03-03T18:36:55;97567.84;;;3.88;85.50
43701;BME280;58809;47.984;7.964;2023-03-03T18:39:40;97580.28;;;3.95;85.71
43701;BME280;58809;47.984;7.964;2023-03-03T18:42:44;97581.84;;;3.98;85.40
43701;BME280;58809;47.984;7.964;2023-03-03T18:45:48;97577.66;;;3.95;85.89
43701;BME280;58809;47.984;7.964;2023-03-03T18:49:06;97581.75;;;3.88;85.70
43701;BME280;58809;47.984;7.964;2023-03-03T18:52:31;97585.72;;;3.82;85.98
43701;BME280;58809;47.984;7.964;2023-03-03T18:55:42;97594.94;;;3.77;86.18
43701;BME280;58809;47.984;7.964;2023-03-03T18:58:44;97593.00;;;3.79;86.54
43701;BME280;58809;47.984;7.964;2023-03-03T19:01:46;97595.22;;;3.74;86.16
43701;BME280;58809;47.984;7.964;2023-03-03T19:08:54;97594.44;;;3.41;87.34
43701;BME280;58809;47.984;7.964;2023-03-03T19:11:58;97595.97;;;3.43;87.40
43701;BME280;58809;47.984;7.964;2023-03-03T19:14:59;97591.72;;;3.31;87.24
43701;BME280;58809;47.984;7.964;2023-03-03T19:18:14;97604.16;;;3.18;87.16
43701;BME280;58809;47.984;7.964;2023-03-03T19:21:21;97602.91;;;3.01;87.94
43701;BME280;58809;47.984;7.964;2023-03-03T19:24:28;97601.75;;;2.94;88.37
43701;BME280;58809;47.984;7.964;2023-03-03T19:30:55;97615.44;;;2.63;89.67
43701;BME280;58809;47.984;7.964;2023-03-03T19:37:03;97614.53;;;2.42;90.58
43701;BME280;58809;47.984;7.964;2023-03-03T19:46:57;97618.44;;;2.14;92.66
43701;BME280;58809;47.984;7.964;2023-03-03T19:50:13;97615.47;;;2.07;91.84
43701;BME280;58809;47.984;7.964;2023-03-03T19:56:49;97628.16;;;1.89;92.37
43701;BME280;58809;47.984;7.964;2023-03-03T20:00:22;97624.56;;;1.79;92.49
43701;BME280;58809;47.984;7.964;2023-03-03T20:03:47;97632.88;;;1.72;92.67
43701;BME280;58809;47.984;7.964;2023-03-03T20:16:35;97633.31;;;1.66;93.56
43701;BME280;58809;47.984;7.964;2023-03-03T20:19:57;97641.81;;;1.57;93.89
43701;BME280;58809;47.984;7.964;2023-03-03T20:29:56;97645.47;;;1.43;94.82
43701;BME280;58809;47.984;7.964;2023-03-03T20:39:34;97647.09;;;1.09;94.63
43701;BME280;58809;47.984;7.964;2023-03-03T20:42:52;97641.75;;;0.86;95.00
43701;BME280;58809;47.984;7.964;2023-03-03T20:55:58;97662.00;;;1.07;96.33
43701;BME280;58809;47.984;7.964;2023-03-03T20:59:16;97656.69;;;1.08;96.40
43701;BME280;58809;47.984;7.964;2023-03-03T21:02:42;97656.28;;;1.02;96.48
43701;BME280;58809;47.984;7.964;2023-03-03T21:06:05;97661.81;;;0.97;96.90
43701;BME280;58809;47.984;7.964;2023-03-03T21:09:31;97661.94;;;0.95;96.36
43701;BME280;58809;47.984;7.964;2023-03-03T21:12:33;97668.03;;;0.83;97.42
43701;BME280;58809;47.984;7.964;2023-03-03T21:15:34;97665.53;;;0.82;98.03
43701;BME280;58809;47.984;7.964;2023-03-03T21:18:36;97662.19;;;0.80;98.14
43701;BME280;58809;47.984;7.964;2023-03-03T21:21:40;97661.59;;;0.76;98.47